PWSweather.com
Personal Weather Stations
Station Observations
MAKAWAOWX1
Up Country Maui, Makawao, HI 96768

Up Country MauiMakawao, HI 96768

Lat: 20.856944, Lon: -156.3149667

Elevation: 1500

Station Type: Davis Vantage Pro

www.dwayneyamato@hawaiiantel.net

High Low Average
Temperature 87.0°F30.6°C 68.5°F20.3°C 76.2°F24.6°C
Dew Point 72.2°F22.3°C 63.7°F17.6°C 68.2°F20.1°C
Winds 12.0 mph 19.3 kmh Calm Calm 5.0 mph E8.0 kmh E
Wind Gusts 20.0 mph32.2 kmh -- 8.0 mph12.9 kmh
Humidity 94% 51% 77%
Pressure 29.85 in1010.8 mb 29.76 in1007.8 mb -
Precipitation 0.02 in0.5 mm - -
Hour Temp Dew Point Humidity Winds Wind Gusts Pressure Precip Precip Rate Daily Precip Total
12:00 AM 70.2°F21.2°C 67.8°F19.9°C 92% Calm Calm -- 29.84 in1010.5 mb - 0.00 in0.0 mm 0.00 in0.0 mm
12:10 AM 70.0°F21.1°C 67.6°F19.8°C 92% Calm Calm -- 29.84 in1010.5 mb - 0.00 in0.0 mm 0.00 in0.0 mm
12:20 AM 69.8°F21.0°C 67.4°F19.7°C 92% Calm Calm -- 29.83 in1010.2 mb - 0.00 in0.0 mm 0.00 in0.0 mm
12:30 AM 69.5°F20.8°C 67.4°F19.7°C 93% Calm Calm -- 29.83 in1010.2 mb - 0.00 in0.0 mm 0.00 in0.0 mm
12:40 AM 69.5°F20.8°C 67.4°F19.7°C 93% Calm Calm -- 29.83 in1010.2 mb - 0.00 in0.0 mm 0.00 in0.0 mm
12:50 AM 69.3°F20.7°C 67.2°F19.6°C 93% Calm Calm -- 29.82 in1009.8 mb - 0.00 in0.0 mm 0.00 in0.0 mm
01:00 AM 69.2°F20.7°C 67.1°F19.5°C 93% 0.6 mph E1.0 kmh E -- 29.82 in1009.8 mb - 0.00 in0.0 mm 0.00 in0.0 mm
01:10 AM 69.1°F20.6°C 67.0°F19.4°C 93% Calm Calm -- 29.82 in1009.8 mb - 0.00 in0.0 mm 0.00 in0.0 mm
01:20 AM 69.3°F20.7°C 67.5°F19.7°C 94% 0.6 mph E1.0 kmh E 1.0 mph1.6 kmh 29.82 in1009.8 mb - 0.00 in0.0 mm 0.00 in0.0 mm
01:30 AM 69.4°F20.8°C 67.0°F19.4°C 92% Calm Calm -- 29.81 in1009.5 mb - 0.00 in0.0 mm 0.00 in0.0 mm
01:40 AM 69.7°F20.9°C 66.3°F19.1°C 89% Calm Calm -- 29.81 in1009.5 mb - 0.00 in0.0 mm 0.00 in0.0 mm
01:50 AM 70.1°F21.2°C 66.1°F18.9°C 87% 2.5 mph E4.0 kmh E 3.0 mph4.8 kmh 29.81 in1009.5 mb - 0.00 in0.0 mm 0.00 in0.0 mm
02:00 AM 70.5°F21.4°C 67.4°F19.7°C 90% 2.0 mph SE3.2 kmh SE 3.0 mph4.8 kmh 29.81 in1009.5 mb - 0.00 in0.0 mm 0.00 in0.0 mm
02:10 AM 70.8°F21.6°C 67.7°F19.8°C 90% Calm Calm -- 29.80 in1009.1 mb - 0.00 in0.0 mm 0.00 in0.0 mm
02:20 AM 70.7°F21.5°C 67.6°F19.8°C 90% Calm Calm -- 29.80 in1009.1 mb - 0.00 in0.0 mm 0.00 in0.0 mm
02:30 AM 70.3°F21.3°C 66.9°F19.4°C 89% Calm Calm -- 29.80 in1009.1 mb - 0.00 in0.0 mm 0.00 in0.0 mm
02:40 AM 69.8°F21.0°C 66.7°F19.3°C 90% Calm Calm -- 29.80 in1009.1 mb - 0.00 in0.0 mm 0.00 in0.0 mm
02:50 AM 69.4°F20.8°C 66.3°F19.1°C 90% Calm Calm -- 29.79 in1008.8 mb - 0.00 in0.0 mm 0.00 in0.0 mm
03:00 AM 69.0°F20.6°C 66.3°F19.1°C 91% Calm Calm -- 29.79 in1008.8 mb - 0.00 in0.0 mm 0.00 in0.0 mm
03:10 AM 68.8°F20.4°C 66.1°F18.9°C 91% 0.1 mph SE0.2 kmh SE 3.0 mph4.8 kmh 29.79 in1008.8 mb - 0.00 in0.0 mm 0.00 in0.0 mm
03:20 AM 68.6°F20.3°C 65.9°F18.8°C 91% 1.0 mph SE1.6 kmh SE 1.0 mph1.6 kmh 29.79 in1008.8 mb - 0.00 in0.0 mm 0.00 in0.0 mm
03:30 AM 68.5°F20.3°C 66.1°F18.9°C 92% Calm Calm -- 29.79 in1008.8 mb - 0.00 in0.0 mm 0.00 in0.0 mm
03:40 AM 68.6°F20.3°C 65.9°F18.8°C 91% Calm Calm -- 29.79 in1008.8 mb - 0.00 in0.0 mm 0.00 in0.0 mm
03:50 AM 68.6°F20.3°C 65.9°F18.8°C 91% 4.8 mph E7.7 kmh E 7.0 mph11.3 kmh 29.78 in1008.5 mb - 0.00 in0.0 mm 0.00 in0.0 mm
04:00 AM 68.8°F20.4°C 65.7°F18.7°C 90% 3.2 mph SE5.1 kmh SE 5.0 mph8.0 kmh 29.78 in1008.5 mb - 0.00 in0.0 mm 0.00 in0.0 mm
04:10 AM 68.9°F20.5°C 66.1°F18.9°C 91% 0.5 mph E0.8 kmh E 5.0 mph8.0 kmh 29.78 in1008.5 mb - 0.00 in0.0 mm 0.00 in0.0 mm
04:20 AM 69.2°F20.7°C 66.1°F18.9°C 90% Calm Calm -- 29.79 in1008.8 mb - 0.00 in0.0 mm 0.00 in0.0 mm
04:30 AM 69.0°F20.6°C 65.9°F18.8°C 90% Calm Calm -- 29.79 in1008.8 mb - 0.00 in0.0 mm 0.00 in0.0 mm
04:40 AM 68.9°F20.5°C 65.8°F18.8°C 90% Calm Calm -- 29.79 in1008.8 mb - 0.00 in0.0 mm 0.00 in0.0 mm
04:50 AM 69.1°F20.6°C 66.4°F19.1°C 91% Calm Calm -- 29.79 in1008.8 mb - 0.00 in0.0 mm 0.00 in0.0 mm
05:00 AM 69.3°F20.7°C 66.2°F19.0°C 90% 1.8 mph E2.9 kmh E 2.0 mph3.2 kmh 29.79 in1008.8 mb - 0.00 in0.0 mm 0.00 in0.0 mm
05:10 AM 69.3°F20.7°C 66.2°F19.0°C 90% Calm Calm -- 29.79 in1008.8 mb - 0.00 in0.0 mm 0.00 in0.0 mm
05:20 AM 69.7°F20.9°C 66.9°F19.4°C 91% 3.5 mph E5.6 kmh E 6.0 mph9.7 kmh 29.79 in1008.8 mb - 0.00 in0.0 mm 0.00 in0.0 mm
05:30 AM 69.8°F21.0°C 66.4°F19.1°C 89% 2.0 mph SE3.2 kmh SE 3.0 mph4.8 kmh 29.79 in1008.8 mb - 0.00 in0.0 mm 0.00 in0.0 mm
05:40 AM 69.5°F20.8°C 66.1°F18.9°C 89% 2.0 mph SE3.2 kmh SE 2.0 mph3.2 kmh 29.79 in1008.8 mb - 0.00 in0.0 mm 0.00 in0.0 mm
05:50 AM 69.4°F20.8°C 66.3°F19.1°C 90% 1.3 mph ESE2.1 kmh ESE 2.0 mph3.2 kmh 29.79 in1008.8 mb - 0.00 in0.0 mm 0.00 in0.0 mm
06:00 AM 69.4°F20.8°C 66.0°F18.9°C 89% Calm Calm -- 29.79 in1008.8 mb - 0.00 in0.0 mm 0.00 in0.0 mm
06:10 AM 69.2°F20.7°C 65.8°F18.8°C 89% 1.3 mph ESE2.1 kmh ESE 1.0 mph1.6 kmh 29.79 in1008.8 mb - 0.00 in0.0 mm 0.00 in0.0 mm
06:20 AM 68.9°F20.5°C 65.9°F18.8°C 90% Calm Calm -- 29.80 in1009.1 mb - 0.00 in0.0 mm 0.00 in0.0 mm
06:30 AM 68.9°F20.5°C 65.8°F18.8°C 90% 3.2 mph E5.1 kmh E 6.0 mph9.7 kmh 29.80 in1009.1 mb - 0.00 in0.0 mm 0.00 in0.0 mm
06:40 AM 69.7°F20.9°C 66.6°F19.2°C 90% 2.7 mph SSE4.3 kmh SSE 4.0 mph6.4 kmh 29.80 in1009.1 mb - 0.00 in0.0 mm 0.00 in0.0 mm
06:50 AM 70.0°F21.1°C 66.3°F19.1°C 88% Calm Calm -- 29.80 in1009.1 mb - 0.00 in0.0 mm 0.00 in0.0 mm
07:00 AM 70.4°F21.3°C 66.7°F19.3°C 88% Calm Calm -- 29.81 in1009.5 mb - 0.00 in0.0 mm 0.00 in0.0 mm
07:10 AM 71.1°F21.7°C 67.4°F19.7°C 88% 4.2 mph E6.8 kmh E 7.0 mph11.3 kmh 29.81 in1009.5 mb - 0.00 in0.0 mm 0.00 in0.0 mm
07:20 AM 72.5°F22.5°C 67.1°F19.5°C 83% 6.2 mph E10.0 kmh E 11.0 mph17.7 kmh 29.81 in1009.5 mb - 0.00 in0.0 mm 0.00 in0.0 mm
07:30 AM 73.7°F23.2°C 67.5°F19.7°C 81% 6.0 mph E9.7 kmh E 10.0 mph16.1 kmh 29.81 in1009.5 mb - 0.00 in0.0 mm 0.00 in0.0 mm
07:40 AM 74.8°F23.8°C 67.5°F19.7°C 78% 3.6 mph E5.8 kmh E 6.0 mph9.7 kmh 29.81 in1009.5 mb - 0.00 in0.0 mm 0.00 in0.0 mm
07:50 AM 75.8°F24.3°C 68.0°F20.0°C 77% 6.5 mph ENE10.5 kmh ENE 9.0 mph14.5 kmh 29.81 in1009.5 mb - 0.00 in0.0 mm 0.00 in0.0 mm
08:00 AM 76.4°F24.7°C 68.7°F20.4°C 77% 6.4 mph E10.3 kmh E 10.0 mph16.1 kmh 29.81 in1009.5 mb - 0.00 in0.0 mm 0.00 in0.0 mm
08:10 AM 77.4°F25.2°C 68.5°F20.3°C 74% 5.1 mph E8.2 kmh E 6.0 mph9.7 kmh 29.81 in1009.5 mb - 0.00 in0.0 mm 0.00 in0.0 mm
08:20 AM 78.2°F25.7°C 68.9°F20.5°C 73% 8.2 mph E13.2 kmh E 11.0 mph17.7 kmh 29.81 in1009.5 mb - 0.00 in0.0 mm 0.00 in0.0 mm
08:30 AM 79.1°F26.2°C 69.2°F20.7°C 72% 5.2 mph E8.4 kmh E 7.0 mph11.3 kmh 29.81 in1009.5 mb - 0.00 in0.0 mm 0.00 in0.0 mm
08:40 AM 79.8°F26.6°C 70.0°F21.1°C 72% 5.0 mph E8.0 kmh E 7.0 mph11.3 kmh 29.81 in1009.5 mb - 0.00 in0.0 mm 0.00 in0.0 mm
08:50 AM 80.8°F27.1°C 69.7°F20.9°C 69% 4.5 mph E7.2 kmh E 15.0 mph24.1 kmh 29.81 in1009.5 mb - 0.00 in0.0 mm 0.00 in0.0 mm
09:00 AM 81.4°F27.4°C 69.0°F20.6°C 66% 5.6 mph E9.0 kmh E 7.0 mph11.3 kmh 29.82 in1009.8 mb - 0.00 in0.0 mm 0.00 in0.0 mm
09:10 AM 81.9°F27.7°C 69.9°F21.1°C 67% 7.0 mph E11.3 kmh E 7.0 mph11.3 kmh 29.82 in1009.8 mb - 0.00 in0.0 mm 0.00 in0.0 mm
09:20 AM 82.0°F27.8°C 69.5°F20.8°C 66% 8.6 mph ENE13.8 kmh ENE 11.0 mph17.7 kmh 29.82 in1009.8 mb - 0.00 in0.0 mm 0.00 in0.0 mm
09:30 AM 81.9°F27.7°C 69.4°F20.8°C 66% 8.4 mph ENE13.5 kmh ENE 12.0 mph19.3 kmh 29.82 in1009.8 mb - 0.00 in0.0 mm 0.00 in0.0 mm
09:40 AM 82.4°F28.0°C 71.2°F21.8°C 69% 3.3 mph ENE5.3 kmh ENE 13.0 mph20.9 kmh 29.82 in1009.8 mb - 0.00 in0.0 mm 0.00 in0.0 mm
09:50 AM 82.6°F28.1°C 69.6°F20.9°C 65% 11.8 mph ENE19.0 kmh ENE 14.0 mph22.5 kmh 29.82 in1009.8 mb - 0.00 in0.0 mm 0.00 in0.0 mm
10:00 AM 82.9°F28.3°C 69.5°F20.8°C 64% 12.0 mph E19.3 kmh E 13.0 mph20.9 kmh 29.83 in1010.2 mb - 0.00 in0.0 mm 0.00 in0.0 mm
10:10 AM 83.5°F28.6°C 70.5°F21.4°C 65% 7.6 mph E12.2 kmh E 14.0 mph22.5 kmh 29.82 in1009.8 mb - 0.00 in0.0 mm 0.00 in0.0 mm
10:20 AM 84.0°F28.9°C 70.0°F21.1°C 63% 9.6 mph ENE15.4 kmh ENE 14.0 mph22.5 kmh 29.82 in1009.8 mb - 0.00 in0.0 mm 0.00 in0.0 mm
10:30 AM 84.3°F29.1°C 71.7°F22.1°C 66% 11.4 mph ENE18.3 kmh ENE 15.0 mph24.1 kmh 29.82 in1009.8 mb - 0.00 in0.0 mm 0.00 in0.0 mm
10:40 AM 84.3°F29.1°C 71.3°F21.8°C 65% 10.2 mph E16.4 kmh E 15.0 mph24.1 kmh 29.82 in1009.8 mb - 0.00 in0.0 mm 0.00 in0.0 mm
10:50 AM 84.7°F29.3°C 70.7°F21.5°C 63% 10.7 mph ENE17.2 kmh ENE 15.0 mph24.1 kmh 29.82 in1009.8 mb - 0.00 in0.0 mm 0.00 in0.0 mm
11:00 AM 84.8°F29.3°C 70.3°F21.3°C 62% 10.7 mph NE17.2 kmh NE 14.0 mph22.5 kmh 29.82 in1009.8 mb - 0.00 in0.0 mm 0.00 in0.0 mm
11:10 AM 84.3°F29.1°C 70.8°F21.6°C 64% 8.2 mph NNE13.2 kmh NNE 15.0 mph24.1 kmh 29.82 in1009.8 mb - 0.00 in0.0 mm 0.00 in0.0 mm
11:20 AM 84.4°F29.1°C 70.4°F21.3°C 63% 9.4 mph NE15.1 kmh NE 13.0 mph20.9 kmh 29.82 in1009.8 mb - 0.00 in0.0 mm 0.00 in0.0 mm
11:30 AM 84.9°F29.4°C 70.9°F21.6°C 63% 6.5 mph E10.5 kmh E 15.0 mph24.1 kmh 29.82 in1009.8 mb - 0.00 in0.0 mm 0.00 in0.0 mm
11:40 AM 85.1°F29.5°C 69.7°F20.9°C 60% 5.5 mph ENE8.9 kmh ENE 8.0 mph12.9 kmh 29.81 in1009.5 mb - 0.00 in0.0 mm 0.00 in0.0 mm
11:50 AM 86.1°F30.1°C 70.1°F21.2°C 59% 6.4 mph ENE10.3 kmh ENE 12.0 mph19.3 kmh 29.81 in1009.5 mb - 0.00 in0.0 mm 0.00 in0.0 mm
12:00 PM 85.6°F29.8°C 70.1°F21.2°C 60% 10.0 mph ENE16.1 kmh ENE 16.0 mph25.7 kmh 29.81 in1009.5 mb - 0.00 in0.0 mm 0.00 in0.0 mm
12:10 PM 85.6°F29.8°C 69.6°F20.9°C 59% 8.7 mph ENE14.0 kmh ENE 16.0 mph25.7 kmh 29.80 in1009.1 mb - 0.00 in0.0 mm 0.00 in0.0 mm
12:20 PM 86.2°F30.1°C 69.7°F20.9°C 58% 5.9 mph E9.5 kmh E 15.0 mph24.1 kmh 29.80 in1009.1 mb - 0.00 in0.0 mm 0.00 in0.0 mm
12:30 PM 86.9°F30.5°C 68.3°F20.2°C 54% 10.4 mph E16.7 kmh E 15.0 mph24.1 kmh 29.80 in1009.1 mb - 0.00 in0.0 mm 0.00 in0.0 mm
12:40 PM 87.0°F30.6°C 66.6°F19.2°C 51% 10.1 mph E16.3 kmh E 18.0 mph29.0 kmh 29.80 in1009.1 mb - 0.00 in0.0 mm 0.00 in0.0 mm
12:50 PM 86.6°F30.3°C 70.1°F21.2°C 58% 5.5 mph ENE8.9 kmh ENE 9.0 mph14.5 kmh 29.80 in1009.1 mb - 0.00 in0.0 mm 0.00 in0.0 mm
01:00 PM 86.2°F30.1°C 71.2°F21.8°C 61% 1.1 mph NE1.8 kmh NE -- 29.79 in1008.8 mb - 0.00 in0.0 mm 0.00 in0.0 mm
01:10 PM 86.5°F30.3°C 67.9°F19.9°C 54% 7.2 mph NE11.6 kmh NE 10.0 mph16.1 kmh 29.79 in1008.8 mb - 0.00 in0.0 mm 0.00 in0.0 mm
01:20 PM 86.7°F30.4°C 69.2°F20.7°C 56% 9.9 mph E15.9 kmh E 15.0 mph24.1 kmh 29.79 in1008.8 mb - 0.00 in0.0 mm 0.00 in0.0 mm
01:30 PM 85.9°F29.9°C 70.9°F21.6°C 61% 7.7 mph ENE12.4 kmh ENE 11.0 mph17.7 kmh 29.79 in1008.8 mb - 0.00 in0.0 mm 0.00 in0.0 mm
01:40 PM 85.6°F29.8°C 71.1°F21.7°C 62% 9.5 mph E15.3 kmh E 15.0 mph24.1 kmh 29.79 in1008.8 mb - 0.00 in0.0 mm 0.00 in0.0 mm
01:50 PM 85.0°F29.4°C 70.0°F21.1°C 61% 4.6 mph ENE7.4 kmh ENE 11.0 mph17.7 kmh 29.78 in1008.5 mb - 0.02 in0.5 mm 0.02 in0.5 mm
02:00 PM 83.9°F28.8°C 70.8°F21.6°C 65% 7.0 mph E11.3 kmh E 10.0 mph16.1 kmh 29.78 in1008.5 mb - 0.00 in0.0 mm 0.02 in0.5 mm
02:10 PM 84.8°F29.3°C 71.3°F21.8°C 64% 7.0 mph E11.3 kmh E 13.0 mph20.9 kmh 29.78 in1008.5 mb - 0.00 in0.0 mm 0.02 in0.5 mm
02:20 PM 84.6°F29.2°C 69.7°F20.9°C 61% 9.2 mph ENE14.8 kmh ENE 20.0 mph32.2 kmh 29.78 in1008.5 mb - 0.00 in0.0 mm 0.02 in0.5 mm
02:30 PM 84.5°F29.2°C 69.1°F20.6°C 60% 10.6 mph E17.1 kmh E 17.0 mph27.4 kmh 29.78 in1008.5 mb - 0.00 in0.0 mm 0.02 in0.5 mm
02:40 PM 84.7°F29.3°C 70.2°F21.2°C 62% 6.6 mph NE10.6 kmh NE 11.0 mph17.7 kmh 29.77 in1008.1 mb - 0.00 in0.0 mm 0.02 in0.5 mm
02:50 PM 84.7°F29.3°C 71.1°F21.7°C 64% 10.3 mph NE16.6 kmh NE 16.0 mph25.7 kmh 29.77 in1008.1 mb - 0.00 in0.0 mm 0.02 in0.5 mm
03:00 PM 84.2°F29.0°C 71.2°F21.8°C 65% 9.3 mph NNE15.0 kmh NNE 15.0 mph24.1 kmh 29.77 in1008.1 mb - 0.00 in0.0 mm 0.02 in0.5 mm
03:10 PM 83.8°F28.8°C 70.8°F21.6°C 65% 8.2 mph ENE13.2 kmh ENE 10.0 mph16.1 kmh 29.77 in1008.1 mb - 0.00 in0.0 mm 0.02 in0.5 mm
03:20 PM 83.3°F28.5°C 71.2°F21.8°C 67% 7.7 mph ENE12.4 kmh ENE 16.0 mph25.7 kmh 29.76 in1007.8 mb - 0.00 in0.0 mm 0.02 in0.5 mm
03:30 PM 82.7°F28.2°C 71.1°F21.7°C 68% 8.7 mph E14.0 kmh E 11.0 mph17.7 kmh 29.76 in1007.8 mb - 0.00 in0.0 mm 0.02 in0.5 mm
03:40 PM 82.7°F28.2°C 71.5°F21.9°C 69% 6.7 mph E10.8 kmh E 9.0 mph14.5 kmh 29.76 in1007.8 mb - 0.00 in0.0 mm 0.02 in0.5 mm
03:50 PM 82.6°F28.1°C 72.2°F22.3°C 71% 8.5 mph E13.7 kmh E 15.0 mph24.1 kmh 29.76 in1007.8 mb - 0.00 in0.0 mm 0.02 in0.5 mm
04:00 PM 82.0°F27.8°C 71.2°F21.8°C 70% 10.3 mph ENE16.6 kmh ENE 12.0 mph19.3 kmh 29.76 in1007.8 mb - 0.00 in0.0 mm 0.02 in0.5 mm
04:10 PM 81.6°F27.6°C 70.5°F21.4°C 69% 11.5 mph E18.5 kmh E 17.0 mph27.4 kmh 29.76 in1007.8 mb - 0.00 in0.0 mm 0.02 in0.5 mm
04:20 PM 81.3°F27.4°C 71.4°F21.9°C 72% 7.2 mph ENE11.6 kmh ENE 11.0 mph17.7 kmh 29.76 in1007.8 mb - 0.00 in0.0 mm 0.02 in0.5 mm
04:30 PM 80.0°F26.7°C 71.0°F21.7°C 74% 6.0 mph ENE9.7 kmh ENE 11.0 mph17.7 kmh 29.76 in1007.8 mb - 0.00 in0.0 mm 0.02 in0.5 mm
04:40 PM 79.0°F26.1°C 71.1°F21.7°C 77% 8.3 mph ENE13.4 kmh ENE 15.0 mph24.1 kmh 29.76 in1007.8 mb - 0.00 in0.0 mm 0.02 in0.5 mm
04:50 PM 78.5°F25.8°C 69.9°F21.1°C 75% 8.4 mph E13.5 kmh E 12.0 mph19.3 kmh 29.76 in1007.8 mb - 0.00 in0.0 mm 0.02 in0.5 mm
05:00 PM 79.4°F26.3°C 70.4°F21.3°C 74% 6.9 mph E11.1 kmh E 10.0 mph16.1 kmh 29.76 in1007.8 mb - 0.00 in0.0 mm 0.02 in0.5 mm
05:10 PM 78.9°F26.1°C 70.3°F21.3°C 75% 5.8 mph E9.3 kmh E 10.0 mph16.1 kmh 29.76 in1007.8 mb - 0.00 in0.0 mm 0.02 in0.5 mm
05:20 PM 78.4°F25.8°C 70.2°F21.2°C 76% 6.1 mph ENE9.8 kmh ENE 12.0 mph19.3 kmh 29.76 in1007.8 mb - 0.00 in0.0 mm 0.02 in0.5 mm
05:30 PM 78.8°F26.0°C 70.2°F21.2°C 75% 7.8 mph E12.6 kmh E 10.0 mph16.1 kmh 29.76 in1007.8 mb - 0.00 in0.0 mm 0.02 in0.5 mm
05:40 PM 79.2°F26.2°C 69.4°F20.8°C 72% 3.3 mph E5.3 kmh E 10.0 mph16.1 kmh 29.77 in1008.1 mb - 0.00 in0.0 mm 0.02 in0.5 mm
05:50 PM 78.4°F25.8°C 69.1°F20.6°C 73% 5.6 mph ENE9.0 kmh ENE 9.0 mph14.5 kmh 29.77 in1008.1 mb - 0.00 in0.0 mm 0.02 in0.5 mm
06:00 PM 77.6°F25.3°C 68.7°F20.4°C 74% 2.0 mph E3.2 kmh E 8.0 mph12.9 kmh 29.77 in1008.1 mb - 0.00 in0.0 mm 0.02 in0.5 mm
06:10 PM 77.3°F25.2°C 68.4°F20.2°C 74% 4.1 mph E6.6 kmh E 11.0 mph17.7 kmh 29.77 in1008.1 mb - 0.00 in0.0 mm 0.02 in0.5 mm
06:20 PM 76.8°F24.9°C 68.3°F20.2°C 75% 2.0 mph E3.2 kmh E 11.0 mph17.7 kmh 29.77 in1008.1 mb - 0.00 in0.0 mm 0.02 in0.5 mm
06:30 PM 76.0°F24.4°C 68.6°F20.3°C 78% 5.4 mph E8.7 kmh E 10.0 mph16.1 kmh 29.77 in1008.1 mb - 0.00 in0.0 mm 0.02 in0.5 mm
06:40 PM 75.2°F24.0°C 68.2°F20.1°C 79% 5.9 mph E9.5 kmh E 9.0 mph14.5 kmh 29.78 in1008.5 mb - 0.00 in0.0 mm 0.02 in0.5 mm
06:50 PM 74.6°F23.7°C 68.4°F20.2°C 81% 1.3 mph E2.1 kmh E 4.0 mph6.4 kmh 29.78 in1008.5 mb - 0.00 in0.0 mm 0.02 in0.5 mm
07:00 PM 74.2°F23.4°C 68.4°F20.2°C 82% 3.8 mph ENE6.1 kmh ENE 12.0 mph19.3 kmh 29.79 in1008.8 mb - 0.00 in0.0 mm 0.02 in0.5 mm
07:10 PM 73.9°F23.3°C 68.4°F20.2°C 83% 3.9 mph E6.3 kmh E 12.0 mph19.3 kmh 29.79 in1008.8 mb - 0.00 in0.0 mm 0.02 in0.5 mm
07:20 PM 73.6°F23.1°C 67.8°F19.9°C 82% 5.3 mph ENE8.5 kmh ENE 7.0 mph11.3 kmh 29.79 in1008.8 mb - 0.00 in0.0 mm 0.02 in0.5 mm
07:30 PM 73.6°F23.1°C 67.5°F19.7°C 81% 6.7 mph ENE10.8 kmh ENE 11.0 mph17.7 kmh 29.80 in1009.1 mb - 0.00 in0.0 mm 0.02 in0.5 mm
07:40 PM 73.4°F23.0°C 67.6°F19.8°C 82% 7.7 mph ENE12.4 kmh ENE 10.0 mph16.1 kmh 29.79 in1008.8 mb - 0.00 in0.0 mm 0.02 in0.5 mm
07:50 PM 73.2°F22.9°C 67.4°F19.7°C 82% 1.7 mph NE2.7 kmh NE 3.0 mph4.8 kmh 29.80 in1009.1 mb - 0.00 in0.0 mm 0.02 in0.5 mm
08:00 PM 73.0°F22.8°C 67.2°F19.6°C 82% 6.9 mph ENE11.1 kmh ENE 9.0 mph14.5 kmh 29.80 in1009.1 mb - 0.00 in0.0 mm 0.02 in0.5 mm
08:10 PM 73.1°F22.8°C 66.9°F19.4°C 81% 0.4 mph E0.6 kmh E 6.0 mph9.7 kmh 29.80 in1009.1 mb - 0.00 in0.0 mm 0.02 in0.5 mm
08:20 PM 73.0°F22.8°C 66.8°F19.3°C 81% 1.2 mph E1.9 kmh E 7.0 mph11.3 kmh 29.81 in1009.5 mb - 0.00 in0.0 mm 0.02 in0.5 mm
08:30 PM 72.9°F22.7°C 64.9°F18.3°C 76% Calm Calm -- 29.81 in1009.5 mb - 0.00 in0.0 mm 0.02 in0.5 mm
08:40 PM 72.8°F22.7°C 65.6°F18.7°C 78% 4.1 mph E6.6 kmh E 6.0 mph9.7 kmh 29.82 in1009.8 mb - 0.00 in0.0 mm 0.02 in0.5 mm
08:50 PM 73.1°F22.8°C 66.9°F19.4°C 81% 2.2 mph ENE3.5 kmh ENE 11.0 mph17.7 kmh 29.82 in1009.8 mb - 0.00 in0.0 mm 0.02 in0.5 mm
09:00 PM 73.0°F22.8°C 67.5°F19.7°C 83% 7.9 mph ENE12.7 kmh ENE 12.0 mph19.3 kmh 29.82 in1009.8 mb - 0.00 in0.0 mm 0.02 in0.5 mm
09:10 PM 72.9°F22.7°C 67.0°F19.4°C 82% 6.2 mph ENE10.0 kmh ENE 11.0 mph17.7 kmh 29.83 in1010.2 mb - 0.00 in0.0 mm 0.02 in0.5 mm
09:20 PM 73.1°F22.8°C 65.5°F18.6°C 77% 5.9 mph E9.5 kmh E 7.0 mph11.3 kmh 29.83 in1010.2 mb - 0.00 in0.0 mm 0.02 in0.5 mm
09:30 PM 73.1°F22.8°C 64.7°F18.2°C 75% Calm Calm -- 29.84 in1010.5 mb - 0.00 in0.0 mm 0.02 in0.5 mm
09:40 PM 73.0°F22.8°C 65.4°F18.6°C 77% 4.0 mph SE6.4 kmh SE 7.0 mph11.3 kmh 29.84 in1010.5 mb - 0.00 in0.0 mm 0.02 in0.5 mm
09:50 PM 72.8°F22.7°C 65.2°F18.4°C 77% 0.7 mph ESE1.1 kmh ESE -- 29.84 in1010.5 mb - 0.00 in0.0 mm 0.02 in0.5 mm
10:00 PM 72.9°F22.7°C 64.1°F17.8°C 74% 0.9 mph ESE1.4 kmh ESE -- 29.84 in1010.5 mb - 0.00 in0.0 mm 0.02 in0.5 mm
10:10 PM 72.8°F22.7°C 63.7°F17.6°C 73% 0.2 mph E0.3 kmh E 3.0 mph4.8 kmh 29.84 in1010.5 mb - 0.00 in0.0 mm 0.02 in0.5 mm
10:20 PM 72.6°F22.6°C 64.6°F18.1°C 76% 3.8 mph ENE6.1 kmh ENE 5.0 mph8.0 kmh 29.84 in1010.5 mb - 0.00 in0.0 mm 0.02 in0.5 mm
10:30 PM 72.1°F22.3°C 64.9°F18.3°C 78% 1.4 mph ENE2.3 kmh ENE -- 29.85 in1010.8 mb - 0.00 in0.0 mm 0.02 in0.5 mm
10:40 PM 72.4°F22.4°C 66.9°F19.4°C 83% 3.3 mph E5.3 kmh E 8.0 mph12.9 kmh 29.84 in1010.5 mb - 0.00 in0.0 mm 0.02 in0.5 mm
10:50 PM 72.6°F22.6°C 67.1°F19.5°C 83% 3.4 mph E5.5 kmh E 8.0 mph12.9 kmh 29.84 in1010.5 mb - 0.00 in0.0 mm 0.02 in0.5 mm
11:00 PM 72.6°F22.6°C 67.5°F19.7°C 84% 5.6 mph E9.0 kmh E 8.0 mph12.9 kmh 29.84 in1010.5 mb - 0.00 in0.0 mm 0.02 in0.5 mm
11:10 PM 72.6°F22.6°C 68.2°F20.1°C 86% 3.0 mph ENE4.8 kmh ENE 10.0 mph16.1 kmh 29.84 in1010.5 mb - 0.00 in0.0 mm 0.02 in0.5 mm
11:20 PM 72.5°F22.5°C 68.1°F20.1°C 86% 6.9 mph NE11.1 kmh NE 10.0 mph16.1 kmh 29.84 in1010.5 mb - 0.00 in0.0 mm 0.02 in0.5 mm
11:30 PM 72.4°F22.4°C 68.0°F20.0°C 86% 7.0 mph E11.3 kmh E 12.0 mph19.3 kmh 29.84 in1010.5 mb - 0.00 in0.0 mm 0.02 in0.5 mm
11:40 PM 72.3°F22.4°C 67.5°F19.7°C 85% 2.9 mph E4.7 kmh E 4.0 mph6.4 kmh 29.84 in1010.5 mb - 0.00 in0.0 mm 0.02 in0.5 mm
11:50 PM 72.4°F22.4°C 67.6°F19.8°C 85% 5.0 mph NE8.0 kmh NE 13.0 mph20.9 kmh 29.83 in1010.2 mb - 0.00 in0.0 mm 0.02 in0.5 mm